createdAt,value
2022-11-09T00:01:02.413Z,100283.22
2022-11-09T00:03:33.665Z,100287.34
2022-11-09T00:06:01.735Z,100289.97
2022-11-09T00:08:29.614Z,100291.03
2022-11-09T00:11:08.181Z,100290.56
2022-11-09T00:13:36.848Z,100290.78
2022-11-09T00:16:05.412Z,100290.72
2022-11-09T00:18:34.400Z,100292.56
2022-11-09T00:21:12.821Z,100295.53
2022-11-09T00:23:40.959Z,100284.13
2022-11-09T00:26:12.897Z,100284.13
2022-11-09T00:28:41.500Z,100282.66
2022-11-09T00:31:13.221Z,100297.16
2022-11-09T00:33:41.240Z,100298.37
2022-11-09T00:36:11.502Z,100294.84
2022-11-09T00:38:42.842Z,100282.28
2022-11-09T00:41:11.853Z,100290.25
2022-11-09T00:43:39.812Z,100303.91
2022-11-09T00:46:07.785Z,100298.06
2022-11-09T00:48:36.249Z,100292.84
2022-11-09T00:51:04.480Z,100296.22
2022-11-09T00:53:32.845Z,100295.63
2022-11-09T00:56:02.309Z,100306.19
2022-11-09T00:58:31.762Z,100300.06
2022-11-09T01:01:00.243Z,100290.31
2022-11-09T01:03:28.296Z,100289.34
2022-11-09T01:05:59.521Z,100291.00
2022-11-09T01:08:30.336Z,100292.69
2022-11-09T01:10:58.202Z,100294.53
2022-11-09T01:13:25.824Z,100297.22
2022-11-09T01:15:54.107Z,100297.22
2022-11-09T01:18:22.599Z,100289.47
2022-11-09T01:20:50.739Z,100297.28
2022-11-09T01:23:21.577Z,100295.38
2022-11-09T01:25:58.203Z,100292.53
2022-11-09T01:28:25.995Z,100290.84
2022-11-09T01:30:54.438Z,100295.31
2022-11-09T01:33:22.280Z,100287.25
2022-11-09T01:35:49.994Z,100297.59
2022-11-09T01:38:18.080Z,100297.59
2022-11-09T01:40:48.595Z,100301.13
2022-11-09T01:43:21.628Z,100301.13
2022-11-09T01:45:56.019Z,100300.34
2022-11-09T01:48:31.182Z,100301.75
2022-11-09T01:51:03.560Z,100299.78
2022-11-09T01:53:39.734Z,100298.19
2022-11-09T01:56:10.149Z,100295.28
2022-11-09T01:59:04.592Z,100297.03
2022-11-09T02:01:34.971Z,100305.69
2022-11-09T02:04:08.242Z,100311.75
2022-11-09T02:06:39.630Z,100317.84
2022-11-09T02:09:13.410Z,100313.75
2022-11-09T02:11:44.258Z,100307.41
2022-11-09T02:16:58.800Z,100315.81
2022-11-09T02:19:26.697Z,100310.44
2022-11-09T02:21:57.888Z,100313.22
2022-11-09T02:24:26.086Z,100318.94
2022-11-09T02:26:54.466Z,100318.09
2022-11-09T02:29:42.021Z,100317.34
2022-11-09T02:32:15.994Z,100315.28
2022-11-09T02:34:43.800Z,100309.50
2022-11-09T02:37:12.540Z,100312.13
2022-11-09T02:39:40.434Z,100316.19
2022-11-09T02:42:20.069Z,100316.78
2022-11-09T02:44:53.077Z,100321.91
2022-11-09T02:47:20.873Z,100323.75
2022-11-09T02:49:51.838Z,100315.09
2022-11-09T02:52:20.870Z,100321.16
2022-11-09T02:54:49.210Z,100315.00
2022-11-09T02:57:17.820Z,100316.62
2022-11-09T02:59:45.534Z,100312.19
2022-11-09T03:02:16.788Z,100306.28
2022-11-09T03:04:44.535Z,100309.97
2022-11-09T03:07:12.327Z,100310.47
2022-11-09T03:09:40.691Z,100314.53
2022-11-09T03:12:27.305Z,100315.37
2022-11-09T03:15:07.173Z,100316.19
2022-11-09T03:17:35.727Z,100310.97
2022-11-09T03:20:04.297Z,100309.47
2022-11-09T03:22:32.033Z,100305.00
2022-11-09T03:24:59.790Z,100304.09
2022-11-09T03:27:28.168Z,100315.22
2022-11-09T03:29:55.706Z,100316.97
2022-11-09T03:32:23.827Z,100315.03
2022-11-09T03:34:52.456Z,100317.72
2022-11-09T03:37:20.259Z,100316.81
2022-11-09T03:39:48.273Z,100322.63
2022-11-09T03:42:16.413Z,100325.16
2022-11-09T03:44:44.137Z,100323.47
2022-11-09T03:47:14.818Z,100328.59
2022-11-09T03:49:42.950Z,100327.06
2022-11-09T03:52:10.682Z,100321.78
2022-11-09T03:54:41.342Z,100326.09
2022-11-09T03:57:09.386Z,100328.69
2022-11-09T03:59:37.206Z,100329.47
2022-11-09T04:02:08.083Z,100324.66
2022-11-09T04:04:36.174Z,100331.97
2022-11-09T04:07:04.103Z,100330.38
2022-11-09T04:09:32.229Z,100327.69
2022-11-09T04:12:04.777Z,100337.94
2022-11-09T04:14:32.498Z,100342.41
2022-11-09T04:17:00.553Z,100337.12
2022-11-09T04:19:28.288Z,100338.81
2022-11-09T04:21:55.996Z,100344.19
2022-11-09T04:24:24.090Z,100346.53
2022-11-09T04:26:51.920Z,100341.31
2022-11-09T04:29:22.592Z,100341.50
2022-11-09T04:31:50.959Z,100344.09
2022-11-09T04:34:18.726Z,100347.31
2022-11-09T04:36:46.485Z,100363.91
2022-11-09T04:39:14.531Z,100360.34
2022-11-09T04:41:45.063Z,100369.88
2022-11-09T04:44:12.770Z,100368.59
2022-11-09T04:46:40.975Z,100365.75
2022-11-09T04:49:08.669Z,100372.97
2022-11-09T04:51:36.377Z,100366.50
2022-11-09T04:54:04.434Z,100376.94
2022-11-09T04:56:32.191Z,100377.84
2022-11-09T04:58:59.865Z,100374.34
2022-11-09T05:01:28.014Z,100377.84
2022-11-09T05:03:55.800Z,100371.88
2022-11-09T05:06:32.639Z,100372.31
2022-11-09T05:09:01.778Z,100372.84
2022-11-09T05:11:30.307Z,100378.47
2022-11-09T05:13:58.532Z,100380.75
2022-11-09T05:16:26.794Z,100378.91
2022-11-09T05:18:54.528Z,100384.97
2022-11-09T05:21:22.464Z,100377.38
2022-11-09T05:23:59.608Z,100372.09
2022-11-09T05:26:28.326Z,100369.88
2022-11-09T05:28:57.856Z,100370.97
2022-11-09T05:31:25.926Z,100373.00
2022-11-09T05:33:54.130Z,100376.13
2022-11-09T05:36:22.999Z,100377.34
2022-11-09T05:38:50.861Z,100386.34
2022-11-09T05:41:18.391Z,100381.00
2022-11-09T05:43:46.837Z,100384.03
2022-11-09T05:46:18.498Z,100382.19
2022-11-09T05:48:49.407Z,100386.72
2022-11-09T05:51:17.084Z,100381.41
2022-11-09T05:53:47.835Z,100385.38
2022-11-09T05:56:15.954Z,100389.09
2022-11-09T05:58:43.819Z,100383.78
2022-11-09T06:01:12.892Z,100390.94
2022-11-09T06:03:44.591Z,100386.72
2022-11-09T06:06:13.954Z,100386.41
2022-11-09T06:08:45.309Z,100392.47
2022-11-09T06:11:17.039Z,100399.28
2022-11-09T06:13:52.245Z,100399.28
2022-11-09T06:16:19.925Z,100396.66
2022-11-09T06:18:47.448Z,100398.38
2022-11-09T06:21:15.716Z,100401.81
2022-11-09T06:23:46.368Z,100398.84
2022-11-09T06:26:14.506Z,100408.06
2022-11-09T06:28:45.782Z,100403.59
2022-11-09T06:31:16.364Z,100410.81
2022-11-09T06:33:44.577Z,100415.44
2022-11-09T06:36:12.919Z,100414.09
2022-11-09T06:38:40.756Z,100419.72
2022-11-09T06:41:09.686Z,100410.91
2022-11-09T06:43:37.440Z,100420.50
2022-11-09T06:46:05.771Z,100417.94
2022-11-09T06:48:34.478Z,100420.81
2022-11-09T06:51:02.266Z,100420.66
2022-11-09T06:53:31.056Z,100422.22
2022-11-09T06:55:59.729Z,100423.06
2022-11-09T06:58:27.987Z,100425.09
2022-11-09T07:00:55.946Z,100418.75
2022-11-09T07:03:26.847Z,100422.12
2022-11-09T07:05:54.534Z,100425.06
2022-11-09T07:08:22.180Z,100425.41
2022-11-09T07:10:50.380Z,100428.28
2022-11-09T07:13:18.129Z,100431.31
2022-11-09T07:15:46.026Z,100438.53
2022-11-09T07:18:14.159Z,100439.84
2022-11-09T07:20:41.808Z,100438.53
2022-11-09T07:23:09.738Z,100442.19
2022-11-09T07:25:37.664Z,100442.66
2022-11-09T07:28:06.371Z,100440.16
2022-11-09T07:30:34.207Z,100433.06
2022-11-09T07:33:12.863Z,100436.63
2022-11-09T07:35:40.564Z,100432.91
2022-11-09T07:38:08.802Z,100441.22
2022-11-09T07:40:36.582Z,100442.34
2022-11-09T07:43:07.473Z,100437.78
2022-11-09T07:45:38.689Z,100442.75
2022-11-09T07:48:10.829Z,100447.03
2022-11-09T07:50:39.792Z,100451.25
2022-11-09T07:53:14.983Z,100452.19
2022-11-09T07:55:43.400Z,100470.47
2022-11-09T07:58:12.422Z,100462.84
2022-11-09T08:00:41.386Z,100460.97
2022-11-09T08:03:09.602Z,100467.03
2022-11-09T08:05:41.135Z,100467.31
2022-11-09T08:08:10.950Z,100473.03
2022-11-09T08:10:38.816Z,100468.63
2022-11-09T08:13:08.582Z,100482.28
2022-11-09T08:15:36.860Z,100473.66
2022-11-09T08:18:05.760Z,100471.41
2022-11-09T08:20:33.956Z,100463.94
2022-11-09T08:23:04.777Z,100463.59
2022-11-09T08:25:34.163Z,100461.91
2022-11-09T08:28:02.161Z,100471.88
2022-11-09T08:30:32.930Z,100457.28
2022-11-09T08:33:01.519Z,100462.56
2022-11-09T08:35:30.284Z,100459.00
2022-11-09T08:38:00.970Z,100459.12
2022-11-09T08:40:29.131Z,100463.25
2022-11-09T08:43:01.630Z,100455.94
2022-11-09T08:45:30.899Z,100465.50
2022-11-09T08:47:59.435Z,100461.84
2022-11-09T08:50:27.944Z,100460.13
2022-11-09T08:52:56.121Z,100451.44
2022-11-09T08:55:23.856Z,100458.84
2022-11-09T08:57:53.998Z,100458.78
2022-11-09T09:00:22.169Z,100464.84
2022-11-09T09:02:53.065Z,100462.97
2022-11-09T09:05:23.946Z,100461.38
2022-11-09T09:07:51.801Z,100461.28
2022-11-09T09:10:19.648Z,100450.63
2022-11-09T09:12:47.432Z,100457.75
2022-11-09T09:15:15.584Z,100444.16
2022-11-09T09:17:43.597Z,100459.16
2022-11-09T09:20:11.361Z,100459.25
2022-11-09T09:22:40.236Z,100453.06
2022-11-09T09:25:08.165Z,100445.78
2022-11-09T09:27:35.861Z,100449.22
2022-11-09T09:30:04.415Z,100453.91
2022-11-09T09:32:32.503Z,100454.75
2022-11-09T09:35:00.321Z,100447.25
2022-11-09T09:37:28.451Z,100452.66
2022-11-09T09:39:56.311Z,100447.81
2022-11-09T09:42:30.919Z,100440.41
2022-11-09T09:44:58.965Z,100445.94
2022-11-09T09:47:38.765Z,100443.22
2022-11-09T09:50:10.778Z,100444.72
2022-11-09T09:53:22.844Z,100443.31
2022-11-09T09:56:10.179Z,100438.81
2022-11-09T09:58:42.824Z,100445.03
2022-11-09T10:01:14.360Z,100450.28
2022-11-09T10:03:42.985Z,100447.34
2022-11-09T10:06:27.939Z,100455.97
2022-11-09T10:09:23.641Z,100460.16
2022-11-09T10:12:01.610Z,100453.06
2022-11-09T10:14:32.657Z,100445.12
2022-11-09T10:17:07.515Z,100454.00
2022-11-09T10:19:55.884Z,100455.03
2022-11-09T10:22:26.305Z,100461.22
2022-11-09T10:27:59.737Z,100467.75
2022-11-09T10:30:29.410Z,100458.13
2022-11-09T10:32:59.706Z,100456.34
2022-11-09T10:35:27.949Z,100453.63
2022-11-09T10:37:55.821Z,100455.97
2022-11-09T10:40:26.029Z,100447.75
2022-11-09T10:43:22.382Z,100447.44
2022-11-09T10:46:09.305Z,100450.53
2022-11-09T10:48:56.020Z,100447.53
2022-11-09T10:51:43.078Z,100454.09
2022-11-09T10:54:34.027Z,100459.69
2022-11-09T10:57:24.542Z,100450.66
2022-11-09T11:00:17.897Z,100442.88
2022-11-09T11:03:17.903Z,100447.00
2022-11-09T11:06:16.075Z,100443.63
2022-11-09T11:09:02.133Z,100442.78
2022-11-09T11:11:48.102Z,100437.25
2022-11-09T11:14:35.267Z,100446.63
2022-11-09T11:17:25.729Z,100443.78
2022-11-09T11:20:41.098Z,100441.16
2022-11-09T11:23:27.402Z,100441.00
2022-11-09T11:26:22.577Z,100438.75
2022-11-09T11:29:21.928Z,100434.25
2022-11-09T11:32:12.599Z,100445.78
2022-11-09T11:35:00.691Z,100452.97
2022-11-09T11:37:53.092Z,100458.19
2022-11-09T11:40:44.594Z,100462.12
2022-11-09T11:43:37.118Z,100458.94
2022-11-09T11:46:32.959Z,100464.94
2022-11-09T11:49:37.191Z,100465.09
2022-11-09T11:52:40.645Z,100457.25
2022-11-09T11:55:50.958Z,100457.25
2022-11-09T11:58:48.965Z,100454.63
2022-11-09T12:01:37.770Z,100467.00
2022-11-09T12:04:42.796Z,100467.00
2022-11-09T12:07:34.988Z,100468.28
2022-11-09T12:10:42.803Z,100472.31
2022-11-09T12:13:40.143Z,100471.94
2022-11-09T12:16:40.115Z,100467.09
2022-11-09T12:19:44.747Z,100470.63
2022-11-09T12:22:34.819Z,100470.56
2022-11-09T12:25:43.623Z,100467.37
2022-11-09T12:28:33.273Z,100482.88
2022-11-09T12:31:42.863Z,100478.03
2022-11-09T12:34:37.577Z,100480.72
2022-11-09T12:37:43.704Z,100484.00
2022-11-09T12:40:31.514Z,100482.41
2022-11-09T12:43:24.797Z,100478.22
2022-11-09T12:46:11.729Z,100474.66
2022-11-09T12:49:01.956Z,100472.22
2022-11-09T12:51:48.194Z,100478.22
2022-11-09T12:54:35.505Z,100479.06
2022-11-09T12:57:23.335Z,100475.47
2022-11-09T13:00:29.635Z,100466.72
2022-11-09T13:03:21.451Z,100448.09
2022-11-09T13:06:10.320Z,100473.16
2022-11-09T13:09:05.253Z,100476.34
2022-11-09T13:11:53.105Z,100474.84
2022-11-09T13:14:39.279Z,100476.72
2022-11-09T13:17:25.384Z,100481.19
2022-11-09T13:20:53.247Z,100481.37
2022-11-09T13:26:49.079Z,100479.69
2022-11-09T13:29:40.715Z,100478.81
2022-11-09T13:32:27.992Z,100480.59
2022-11-09T13:35:32.425Z,100483.22
2022-11-09T13:38:21.826Z,100483.31
2022-11-09T13:41:32.268Z,100494.66
2022-11-09T13:44:21.114Z,100491.28
2022-11-09T13:47:20.970Z,100495.63
2022-11-09T13:50:27.247Z,100502.09
2022-11-09T13:53:30.896Z,100501.06
2022-11-09T13:56:40.205Z,100502.94
2022-11-09T13:59:32.915Z,100491.63
2022-11-09T14:02:23.681Z,100496.66
2022-11-09T14:05:28.286Z,100504.59
2022-11-09T14:08:25.051Z,100496.88
2022-11-09T14:11:11.279Z,100504.53
2022-11-09T14:14:03.086Z,100492.38
2022-11-09T14:17:02.305Z,100503.78
2022-11-09T14:19:58.527Z,100501.91
2022-11-09T14:22:44.708Z,100489.66
2022-11-09T14:25:32.531Z,100485.09
2022-11-09T14:28:27.787Z,100482.47
2022-11-09T14:31:23.406Z,100486.19
2022-11-09T14:34:14.888Z,100480.87
2022-11-09T14:37:04.737Z,100491.28
2022-11-09T14:39:53.452Z,100489.78
2022-11-09T14:42:45.914Z,100499.28
2022-11-09T14:45:32.020Z,100508.16
2022-11-09T14:48:19.707Z,100506.38
2022-11-09T14:51:12.291Z,100511.47
2022-11-09T14:53:59.713Z,100510.88
2022-11-09T14:56:46.020Z,100516.69
2022-11-09T14:59:33.307Z,100508.66
2022-11-09T15:02:23.630Z,100516.69
2022-11-09T15:05:29.370Z,100509.84
2022-11-09T15:08:17.042Z,100508.84
2022-11-09T15:11:03.116Z,100495.56
2022-11-09T15:13:49.319Z,100507.13
2022-11-09T15:16:35.361Z,100508.84
2022-11-09T15:19:41.433Z,100509.69
2022-11-09T15:22:49.466Z,100508.84
2022-11-09T15:25:42.479Z,100504.38
2022-11-09T15:28:30.889Z,100506.31
2022-11-09T15:31:19.113Z,100512.22
2022-11-09T15:34:24.825Z,100516.41
2022-11-09T15:37:37.698Z,100520.81
2022-11-09T15:40:24.858Z,100519.94
2022-11-09T15:43:11.543Z,100517.53
2022-11-09T15:45:59.414Z,100520.81
2022-11-09T15:48:46.216Z,100514.56
2022-11-09T15:51:32.455Z,100515.37
2022-11-09T15:54:18.733Z,100515.22
2022-11-09T15:57:07.862Z,100515.03
2022-11-09T15:59:54.156Z,100513.38
2022-11-09T16:02:40.217Z,100513.44
2022-11-09T16:05:28.204Z,100507.19
2022-11-09T16:08:14.663Z,100502.69
2022-11-09T16:11:03.621Z,100512.25
2022-11-09T16:13:49.528Z,100503.44
2022-11-09T16:16:35.568Z,100502.34
2022-11-09T16:19:21.798Z,100505.91
2022-11-09T16:22:08.844Z,100505.03
2022-11-09T16:24:54.633Z,100520.66
2022-11-09T16:27:50.061Z,100517.12
2022-11-09T16:30:37.291Z,100512.53
2022-11-09T16:33:23.335Z,100502.91
2022-11-09T16:36:11.632Z,100500.31
2022-11-09T16:38:58.212Z,100498.44
2022-11-09T16:41:45.444Z,100501.13
2022-11-09T16:44:34.297Z,100503.47
2022-11-09T16:47:21.433Z,100498.25
2022-11-09T16:50:07.806Z,100503.38
2022-11-09T16:52:53.422Z,100506.66
2022-11-09T16:55:39.527Z,100505.72
2022-11-09T16:58:25.301Z,100495.34
2022-11-09T17:01:13.048Z,100496.00
2022-11-09T17:04:00.666Z,100501.16
2022-11-09T17:06:46.759Z,100505.37
2022-11-09T17:09:35.355Z,100500.97
2022-11-09T17:12:21.272Z,100500.12
2022-11-09T17:15:07.638Z,100486.06
2022-11-09T17:17:53.611Z,100490.41
2022-11-09T17:20:47.261Z,100492.25
2022-11-09T17:23:34.668Z,100495.34
2022-11-09T17:26:21.616Z,100504.03
2022-11-09T17:29:07.338Z,100502.38
2022-11-09T17:31:52.953Z,100498.63
2022-11-09T17:34:39.099Z,100496.94
2022-11-09T17:37:25.032Z,100498.81
2022-11-09T17:40:11.142Z,100507.41
2022-11-09T17:42:57.396Z,100502.00
2022-11-09T17:45:43.480Z,100502.84
2022-11-09T17:48:29.321Z,100507.41
2022-11-09T17:51:16.710Z,100511.66
2022-11-09T17:54:04.202Z,100506.41
2022-11-09T17:59:56.435Z,100511.28
2022-11-09T18:02:42.499Z,100507.03
2022-11-09T18:05:29.370Z,100508.53
2022-11-09T18:08:15.703Z,100513.78
2022-11-09T18:11:01.615Z,100511.16
2022-11-09T18:13:47.505Z,100504.34
2022-11-09T18:16:33.277Z,100508.53
2022-11-09T18:19:19.370Z,100517.16
2022-11-09T18:22:08.734Z,100513.97
2022-11-09T18:24:58.167Z,100516.59
2022-11-09T18:27:44.016Z,100524.25
2022-11-09T18:30:29.908Z,100527.00
2022-11-09T18:33:19.217Z,100531.19
2022-11-09T18:36:06.196Z,100532.88
2022-11-09T18:38:54.190Z,100530.81
2022-11-09T18:41:40.104Z,100527.25
2022-11-09T18:44:26.192Z,100523.72
2022-11-09T18:47:14.268Z,100521.09
2022-11-09T18:50:00.277Z,100515.78
2022-11-09T18:52:46.627Z,100520.16
2022-11-09T18:55:32.925Z,100529.13
2022-11-09T18:58:19.721Z,100527.53
2022-11-09T19:01:06.468Z,100526.78
2022-11-09T19:03:57.816Z,100531.00
2022-11-09T19:06:45.556Z,100521.47
2022-11-09T19:09:39.057Z,100532.13
2022-11-09T19:12:25.737Z,100532.97
2022-11-09T19:15:11.925Z,100532.22
2022-11-09T19:17:57.605Z,100529.31
2022-11-09T19:20:44.147Z,100529.41
2022-11-09T19:23:34.389Z,100530.91
2022-11-09T19:26:21.495Z,100527.63
2022-11-09T19:29:08.104Z,100530.25
2022-11-09T19:31:55.258Z,100534.75
2022-11-09T19:34:43.028Z,100543.34
2022-11-09T19:37:30.845Z,100538.97
2022-11-09T19:40:17.093Z,100537.28
2022-11-09T19:43:03.076Z,100543.19
2022-11-09T19:45:52.111Z,100538.09
2022-11-09T19:48:38.307Z,100530.06
2022-11-09T19:51:24.527Z,100536.34
2022-11-09T19:54:11.346Z,100532.88
2022-11-09T19:56:57.263Z,100538.09
2022-11-09T19:59:43.230Z,100526.03
2022-11-09T20:02:31.727Z,100532.13
2022-11-09T20:05:17.639Z,100529.50
2022-11-09T20:08:04.612Z,100539.81
2022-11-09T20:10:51.009Z,100544.31
2022-11-09T20:13:41.096Z,100550.81
2022-11-09T20:16:26.989Z,100547.09
2022-11-09T20:19:13.615Z,100553.38
2022-11-09T20:21:59.512Z,100548.87
2022-11-09T20:24:45.473Z,100550.47
2022-11-09T20:27:32.550Z,100549.63
2022-11-09T20:30:18.397Z,100547.75
2022-11-09T20:33:04.405Z,100538.31
2022-11-09T20:35:55.653Z,100544.31
2022-11-09T20:38:44.605Z,100549.63
2022-11-09T20:41:30.516Z,100545.41
2022-11-09T20:44:16.689Z,100545.41
2022-11-09T20:47:05.773Z,100546.09
2022-11-09T20:49:51.633Z,100558.59
2022-11-09T20:52:37.420Z,100555.50
2022-11-09T20:55:24.887Z,100549.16
2022-11-09T20:58:14.199Z,100552.44
2022-11-09T21:01:01.512Z,100555.06
2022-11-09T21:03:49.141Z,100556.25
2022-11-09T21:06:35.327Z,100569.16
2022-11-09T21:09:20.871Z,100571.63
2022-11-09T21:12:22.755Z,100564.88
2022-11-09T21:15:08.988Z,100562.34
2022-11-09T21:17:55.266Z,100565.63
2022-11-09T21:20:41.278Z,100572.53
2022-11-09T21:23:27.153Z,100565.53
2022-11-09T21:26:31.671Z,100564.50
2022-11-09T21:29:38.044Z,100567.22
2022-11-09T21:32:24.824Z,100558.59
2022-11-09T21:35:18.164Z,100563.69
2022-11-09T21:38:04.303Z,100559.44
2022-11-09T21:40:50.868Z,100567.41
2022-11-09T21:43:36.952Z,100558.06
2022-11-09T21:46:25.872Z,100556.94
2022-11-09T21:49:13.035Z,100556.19
2022-11-09T21:51:59.840Z,100558.87
2022-11-09T21:54:45.785Z,100561.59
2022-11-09T21:57:31.834Z,100567.66
2022-11-09T22:00:17.830Z,100570.13
2022-11-09T22:03:03.603Z,100571.16
2022-11-09T22:05:49.756Z,100565.63
2022-11-09T22:08:35.576Z,100568.34
2022-11-09T22:11:42.780Z,100578.25
2022-11-09T22:14:47.623Z,100575.34
2022-11-09T22:17:33.700Z,100579.16
2022-11-09T22:20:38.201Z,100579.16
2022-11-09T22:23:25.508Z,100580.59
2022-11-09T22:26:11.264Z,100570.13
2022-11-09T22:28:57.955Z,100574.88
2022-11-09T22:31:47.447Z,100584.50
2022-11-09T22:34:36.472Z,100587.13
2022-11-09T22:37:22.443Z,100585.53
2022-11-09T22:40:08.690Z,100591.59
2022-11-09T22:42:57.695Z,100590.09
2022-11-09T22:45:43.853Z,100588.97
2022-11-09T22:48:31.085Z,100591.59
2022-11-09T22:51:17.715Z,100592.63
2022-11-09T22:54:04.244Z,100596.75
2022-11-09T22:56:52.941Z,100597.03
2022-11-09T22:59:38.830Z,100591.78
2022-11-09T23:02:24.553Z,100597.31
2022-11-09T23:05:10.664Z,100597.13
2022-11-09T23:07:56.707Z,100592.91
2022-11-09T23:10:42.585Z,100589.19
2022-11-09T23:13:31.743Z,100587.94
2022-11-09T23:16:18.024Z,100598.22
2022-11-09T23:19:03.842Z,100590.44
2022-11-09T23:21:52.852Z,100597.56
2022-11-09T23:24:57.555Z,100594.84
2022-11-09T23:27:44.765Z,100602.56
2022-11-09T23:30:30.440Z,100596.72
2022-11-09T23:33:16.572Z,100599.19
2022-11-09T23:36:03.025Z,100601.97
2022-11-09T23:38:52.014Z,100601.28
2022-11-09T23:41:38.146Z,100599.53
2022-11-09T23:44:24.812Z,100598.84
2022-11-09T23:47:10.842Z,100605.59
2022-11-09T23:49:56.954Z,100606.28
2022-11-09T23:52:43.144Z,100603.37
2022-11-09T23:55:29.909Z,100600.00
2022-11-09T23:58:16.129Z,100601.53
